createdAt,value
2018-08-25T00:03:44.131Z,9.90
2018-08-25T00:08:47.257Z,10.67
2018-08-25T00:13:50.366Z,8.10
2018-08-25T00:18:53.599Z,9.17
2018-08-25T00:23:56.714Z,24.70
2018-08-25T00:28:59.832Z,11.10
2018-08-25T00:34:03.176Z,8.70
2018-08-25T00:39:08.035Z,9.80
2018-08-25T00:44:11.149Z,6.97
2018-08-25T00:49:14.260Z,7.70
2018-08-25T00:54:17.371Z,8.90
2018-08-25T00:59:20.537Z,8.80
2018-08-25T01:04:23.608Z,7.10
2018-08-25T01:09:26.716Z,7.80
2018-08-25T01:14:29.828Z,9.40
2018-08-25T01:19:33.013Z,9.50
2018-08-25T01:24:36.121Z,7.90
2018-08-25T01:29:39.221Z,9.93
2018-08-25T01:34:42.320Z,9.93
2018-08-25T01:39:45.433Z,12.27
2018-08-25T01:44:48.548Z,6.90
2018-08-25T01:49:51.659Z,7.70
2018-08-25T01:54:54.772Z,8.97
2018-08-25T01:59:57.883Z,13.20
2018-08-25T02:05:00.996Z,7.53
2018-08-25T02:10:04.144Z,10.00
2018-08-25T02:15:07.248Z,7.33
2018-08-25T02:20:10.354Z,10.23
2018-08-25T02:25:13.460Z,7.83
2018-08-25T02:30:16.685Z,9.33
2018-08-25T02:35:19.808Z,7.87
2018-08-25T02:40:22.929Z,9.80
2018-08-25T02:45:26.094Z,9.90
2018-08-25T02:50:29.204Z,7.77
2018-08-25T02:55:32.356Z,10.97
2018-08-25T03:00:35.480Z,11.80
2018-08-25T03:05:38.595Z,10.50
2018-08-25T03:10:41.721Z,11.77
2018-08-25T03:15:44.876Z,9.30
2018-08-25T03:20:47.988Z,9.37
2018-08-25T03:25:51.281Z,10.87
2018-08-25T03:30:54.393Z,15.10
2018-08-25T03:35:57.506Z,10.73
2018-08-25T03:41:00.610Z,10.07
2018-08-25T03:46:03.712Z,13.20
2018-08-25T03:51:06.832Z,8.37
2018-08-25T03:56:09.948Z,15.60
2018-08-25T04:01:13.068Z,10.58
2018-08-25T04:06:16.226Z,9.57
2018-08-25T04:11:19.348Z,11.08
2018-08-25T04:16:22.466Z,13.07
2018-08-25T04:21:25.590Z,11.77
2018-08-25T04:26:28.704Z,11.80
2018-08-25T04:31:31.821Z,13.20
2018-08-25T04:36:35.000Z,10.57
2018-08-25T04:41:38.171Z,11.93
2018-08-25T04:46:41.280Z,9.93
2018-08-25T04:51:44.390Z,11.57
2018-08-25T04:56:47.513Z,14.70
2018-08-25T05:01:50.683Z,11.80
2018-08-25T05:06:53.764Z,14.40
2018-08-25T05:11:56.884Z,9.43
2018-08-25T05:16:59.992Z,11.00
2018-08-25T05:22:03.156Z,11.30
2018-08-25T05:27:06.215Z,7.50
2018-08-25T05:32:09.323Z,9.97
2018-08-25T05:37:12.585Z,9.43
2018-08-25T05:42:15.693Z,9.83
2018-08-25T05:47:18.811Z,15.97
2018-08-25T05:52:21.920Z,8.93
2018-08-25T05:57:25.032Z,17.00
2018-08-25T06:02:28.137Z,10.67
2018-08-25T06:07:31.269Z,8.87
2018-08-25T06:12:34.384Z,7.03
2018-08-25T06:17:37.503Z,13.03
2018-08-25T06:22:40.608Z,13.72
2018-08-25T06:27:43.800Z,11.00
2018-08-25T06:32:46.908Z,11.53
2018-08-25T06:37:50.028Z,9.57
2018-08-25T06:42:53.165Z,5.30
2018-08-25T06:47:56.286Z,7.47
2018-08-25T06:52:59.401Z,3.47
2018-08-25T06:58:02.500Z,8.43
2018-08-25T07:03:06.044Z,7.20
2018-08-25T07:08:09.148Z,5.70
2018-08-25T07:13:12.271Z,6.42
2018-08-25T07:18:15.380Z,6.10
2018-08-25T07:23:18.500Z,9.97
2018-08-25T07:28:21.605Z,5.90
2018-08-25T07:33:24.721Z,3.93
2018-08-25T07:38:27.902Z,3.77
2018-08-25T07:43:30.979Z,4.57
2018-08-25T07:48:34.122Z,4.63
2018-08-25T07:53:37.250Z,6.37
2018-08-25T07:58:40.374Z,7.90
2018-08-25T08:03:43.468Z,9.67
2018-08-25T08:08:46.598Z,10.83
2018-08-25T08:13:49.701Z,4.77
2018-08-25T08:18:52.818Z,4.90
2018-08-25T08:23:55.924Z,8.40
2018-08-25T08:28:59.032Z,9.13
2018-08-25T08:34:02.140Z,9.40
2018-08-25T08:39:08.596Z,9.85
2018-08-25T08:44:11.713Z,6.73
2018-08-25T08:49:14.833Z,5.30
2018-08-25T08:54:17.945Z,5.30
2018-08-25T08:59:21.079Z,5.83
2018-08-25T09:04:24.184Z,3.83
2018-08-25T09:09:27.301Z,4.70
2018-08-25T09:14:30.415Z,6.13
2018-08-25T09:19:33.869Z,7.77
2018-08-25T09:24:36.982Z,6.90
2018-08-25T09:29:40.112Z,5.23
2018-08-25T09:34:43.205Z,5.97
2018-08-25T09:39:46.316Z,5.40
2018-08-25T09:44:49.432Z,5.37
2018-08-25T09:49:52.532Z,4.83
2018-08-25T09:54:55.652Z,5.70
2018-08-25T09:59:58.802Z,6.53
2018-08-25T10:05:01.945Z,9.20
2018-08-25T10:10:06.620Z,5.92
2018-08-25T10:15:09.752Z,5.07
2018-08-25T10:20:12.922Z,6.22
2018-08-25T10:25:16.049Z,3.02
2018-08-25T10:30:19.160Z,20.00
2018-08-25T10:35:22.281Z,5.23
2018-08-25T10:40:25.396Z,3.40
2018-08-25T10:45:28.517Z,6.20
2018-08-25T10:50:31.637Z,2.15
2018-08-25T10:55:34.768Z,11.03
2018-08-25T11:00:38.043Z,4.70
2018-08-25T11:05:40.976Z,4.23
2018-08-25T11:10:44.092Z,7.67
2018-08-25T11:15:47.202Z,8.87
2018-08-25T11:20:50.333Z,3.97
2018-08-25T11:25:53.433Z,2.93
2018-08-25T11:30:56.535Z,6.07
2018-08-25T11:35:59.644Z,5.63
2018-08-25T11:41:02.751Z,5.43
2018-08-25T11:46:05.865Z,3.47
2018-08-25T11:51:08.984Z,10.00
2018-08-25T11:56:12.097Z,8.20
2018-08-25T12:01:15.211Z,8.73
2018-08-25T12:06:18.324Z,4.53
2018-08-25T12:11:21.501Z,3.57
2018-08-25T12:16:24.697Z,4.83
2018-08-25T12:21:28.598Z,1.00
2018-08-25T12:26:31.748Z,1.00
2018-08-25T12:31:34.873Z,1.63
2018-08-25T12:36:38.009Z,2.23
2018-08-25T12:41:41.099Z,6.30
2018-08-25T12:46:44.356Z,2.93
2018-08-25T12:51:47.559Z,1.83
2018-08-25T12:56:50.592Z,3.80
2018-08-25T13:01:53.709Z,2.10
2018-08-25T13:06:56.922Z,1.83
2018-08-25T13:12:00.034Z,4.00
2018-08-25T13:17:03.295Z,4.20
2018-08-25T13:22:06.586Z,3.13
2018-08-25T13:27:09.837Z,7.03
2018-08-25T13:32:12.913Z,3.37
2018-08-25T13:37:16.049Z,11.97
2018-08-25T13:42:19.171Z,2.60
2018-08-25T13:47:22.287Z,2.72
2018-08-25T13:52:25.524Z,2.83
2018-08-25T13:57:28.589Z,1.20
2018-08-25T14:02:31.741Z,1.50
2018-08-25T14:07:34.860Z,4.10
2018-08-25T14:12:37.984Z,1.50
2018-08-25T14:17:41.097Z,2.67
2018-08-25T14:22:44.199Z,2.20
2018-08-25T14:27:47.316Z,6.83
2018-08-25T14:32:50.432Z,1.57
2018-08-25T14:37:53.544Z,2.60
2018-08-25T14:42:56.675Z,3.80
2018-08-25T14:47:59.832Z,1.10
2018-08-25T14:53:02.960Z,2.70
2018-08-25T14:58:06.084Z,4.97
2018-08-25T15:03:09.579Z,6.53
2018-08-25T15:08:12.664Z,2.73
2018-08-25T15:13:15.835Z,1.27
2018-08-25T15:18:18.933Z,4.17
2018-08-25T15:23:22.052Z,1.67
2018-08-25T15:28:25.176Z,1.50
2018-08-25T15:33:28.292Z,2.10
2018-08-25T15:38:31.413Z,1.20
2018-08-25T15:43:34.561Z,3.40
2018-08-25T15:48:37.683Z,1.53
2018-08-25T15:53:40.795Z,5.03
2018-08-25T15:58:44.011Z,3.37
2018-08-25T16:03:47.116Z,2.53
2018-08-25T16:08:50.240Z,2.77
2018-08-25T16:13:53.358Z,1.13
2018-08-25T16:18:56.488Z,2.33
2018-08-25T16:23:59.613Z,1.20
2018-08-25T16:29:02.728Z,1.13
2018-08-25T16:34:05.924Z,1.53
2018-08-25T16:39:09.073Z,0.90
2018-08-25T16:44:12.198Z,1.22
2018-08-25T16:49:15.395Z,2.02
2018-08-25T16:54:18.433Z,1.70
2018-08-25T16:59:21.555Z,1.80
2018-08-25T17:04:24.680Z,2.40
2018-08-25T17:09:27.836Z,4.17
2018-08-25T17:14:30.944Z,2.53
2018-08-25T17:19:34.079Z,2.27
2018-08-25T17:24:37.173Z,3.50
2018-08-25T17:29:40.608Z,2.80
2018-08-25T17:34:43.748Z,2.10
2018-08-25T17:39:46.860Z,1.30
2018-08-25T17:44:49.996Z,2.40
2018-08-25T17:49:53.232Z,1.33
2018-08-25T17:54:56.344Z,4.10
2018-08-25T17:59:59.476Z,2.53
2018-08-25T18:05:02.609Z,3.70
2018-08-25T18:10:05.939Z,2.30
2018-08-25T18:15:09.045Z,2.73
2018-08-25T18:20:12.196Z,2.98
2018-08-25T18:25:15.340Z,1.27
2018-08-25T18:30:18.486Z,4.85
2018-08-25T18:35:21.548Z,1.55
2018-08-25T18:40:24.675Z,2.30
2018-08-25T18:45:27.786Z,2.13
2018-08-25T18:50:30.932Z,2.97
2018-08-25T18:55:34.052Z,1.40
2018-08-25T19:00:37.209Z,1.00
2018-08-25T19:05:40.376Z,1.80
2018-08-25T19:10:43.483Z,2.30
2018-08-25T19:15:46.622Z,1.47
2018-08-25T19:20:49.728Z,2.23
2018-08-25T19:25:52.839Z,3.00
2018-08-25T19:30:55.980Z,1.27
2018-08-25T19:35:59.088Z,4.40
2018-08-25T19:41:02.199Z,1.50
2018-08-25T19:46:05.830Z,1.87
2018-08-25T19:51:08.957Z,1.80
2018-08-25T19:56:12.081Z,1.45
2018-08-25T20:01:15.196Z,3.40
2018-08-25T20:06:18.341Z,1.57
2018-08-25T20:11:21.571Z,1.57
2018-08-25T20:16:24.717Z,2.83
2018-08-25T20:21:27.868Z,2.30
2018-08-25T20:26:30.964Z,3.93
2018-08-25T20:31:34.076Z,5.80
2018-08-25T20:36:37.204Z,1.60
2018-08-25T20:41:40.352Z,3.10
2018-08-25T20:46:43.465Z,1.67
2018-08-25T20:51:46.600Z,2.80
2018-08-25T20:56:49.721Z,2.90
2018-08-25T21:01:52.846Z,1.50
2018-08-25T21:06:55.966Z,2.63
2018-08-25T21:11:59.086Z,3.90
2018-08-25T21:17:02.276Z,2.67
2018-08-25T21:22:05.801Z,3.40
2018-08-25T21:27:08.924Z,2.80
2018-08-25T21:32:12.054Z,1.82
2018-08-25T21:37:15.164Z,2.80
2018-08-25T21:42:18.333Z,3.42
2018-08-25T21:47:21.440Z,4.83
2018-08-25T21:52:24.615Z,1.37
2018-08-25T21:57:27.728Z,4.10
2018-08-25T22:02:30.874Z,4.40
2018-08-25T22:07:33.988Z,2.60
2018-08-25T22:12:37.155Z,3.07
2018-08-25T22:17:40.272Z,1.87
2018-08-25T22:22:43.404Z,2.43
2018-08-25T22:27:46.600Z,4.73
2018-08-25T22:32:49.763Z,2.17
2018-08-25T22:37:53.906Z,2.13
2018-08-25T22:42:57.047Z,2.20
2018-08-25T22:48:00.176Z,4.27
2018-08-25T22:53:03.297Z,3.60
2018-08-25T22:58:06.481Z,3.40
2018-08-25T23:03:09.609Z,3.53
2018-08-25T23:08:12.724Z,2.77
2018-08-25T23:13:15.881Z,3.63
2018-08-25T23:18:18.995Z,1.77
2018-08-25T23:23:22.122Z,3.60
2018-08-25T23:28:25.248Z,2.57
2018-08-25T23:33:28.519Z,2.00
2018-08-25T23:38:31.628Z,3.93
2018-08-25T23:43:34.749Z,3.23
2018-08-25T23:48:37.906Z,4.40
2018-08-25T23:53:40.998Z,3.57
2018-08-25T23:58:44.129Z,4.40
